Churchs Ferry, North Dakota
Current Conditions -  °F | °C
As of 5:15 PM on Saturday 25 Oct 2014 (Local Time) from K9D7 Reporting Station
Clear Clear  
Wind Chill: 57°   Ceiling: Unl
Heat Index: 57°   Visibility: 10mi
Dew Point: 25°   Wind: 10mph
Humidity: 29%   Direction: 270°W
Pressure: 30.05"   Gusts: NA
Location:  48.27°N, 99.19°W
Report Text: K9D7 252215Z AUTO 27009KT 10SM CLR 14/M04 A3005 RMK AO2
Loading
Personal Weather Stations






























Interactive Weather Map
Tropical Storm Tracking
New forecast layout! Learn more

10-Day Weather Forecast

Advertisements
Track Severe Weather on mobile